sensor_id;sensor_type;location;lat;lon;timestamp;pressure;altitude;pressure_sealevel;temperature;humidity
64698;BME280;51124;53.394;-6.294;2023-03-04T00:00:44;102650.13;;;16.63;8.95
64698;BME280;51124;53.394;-6.294;2023-03-04T00:03:11;102647.80;;;15.75;9.09
64698;BME280;51124;53.394;-6.294;2023-03-04T00:05:38;102643.99;;;16.36;8.93
64698;BME280;51124;53.394;-6.294;2023-03-04T00:08:05;102642.26;;;16.21;9.07
64698;BME280;51124;53.394;-6.294;2023-03-04T00:10:33;102638.86;;;16.26;9.13
64698;BME280;51124;53.394;-6.294;2023-03-04T00:13:00;102635.10;;;16.43;9.00
64698;BME280;51124;53.394;-6.294;2023-03-04T00:15:28;102632.30;;;17.21;8.93
64698;BME280;51124;53.394;-6.294;2023-03-04T00:17:55;102630.35;;;16.28;9.17
64698;BME280;51124;53.394;-6.294;2023-03-04T00:20:22;102631.81;;;16.83;8.86
64698;BME280;51124;53.394;-6.294;2023-03-04T00:22:50;102629.54;;;16.73;9.24
64698;BME280;51124;53.394;-6.294;2023-03-04T00:25:17;102628.03;;;16.10;8.91
64698;BME280;51124;53.394;-6.294;2023-03-04T00:27:45;102632.64;;;16.05;9.36
64698;BME280;51124;53.394;-6.294;2023-03-04T00:30:12;102631.05;;;16.59;9.05
64698;BME280;51124;53.394;-6.294;2023-03-04T00:32:40;102631.97;;;15.95;9.17
64698;BME280;51124;53.394;-6.294;2023-03-04T00:35:08;102632.73;;;16.64;9.17
64698;BME280;51124;53.394;-6.294;2023-03-04T00:37:35;102631.84;;;16.67;9.09
64698;BME280;51124;53.394;-6.294;2023-03-04T00:40:03;102633.06;;;16.09;9.19
64698;BME280;51124;53.394;-6.294;2023-03-04T00:42:30;102630.39;;;15.86;9.15
64698;BME280;51124;53.394;-6.294;2023-03-04T00:44:58;102627.86;;;15.94;9.00
64698;BME280;51124;53.394;-6.294;2023-03-04T00:47:25;102624.58;;;15.56;9.09
64698;BME280;51124;53.394;-6.294;2023-03-04T00:49:53;102622.00;;;16.71;8.94
64698;BME280;51124;53.394;-6.294;2023-03-04T00:52:21;102617.54;;;19.10;9.23
64698;BME280;51124;53.394;-6.294;2023-03-04T00:54:49;102619.80;;;18.17;9.77
64698;BME280;51124;53.394;-6.294;2023-03-04T00:57:16;102615.15;;;18.03;10.02
64698;BME280;51124;53.394;-6.294;2023-03-04T00:59:44;102610.25;;;16.98;10.12
64698;BME280;51124;53.394;-6.294;2023-03-04T01:02:12;102614.16;;;19.00;9.79
64698;BME280;51124;53.394;-6.294;2023-03-04T01:04:39;102615.74;;;19.76;10.35
64698;BME280;51124;53.394;-6.294;2023-03-04T01:07:07;102618.94;;;18.69;10.73
64698;BME280;51124;53.394;-6.294;2023-03-04T01:09:35;102620.91;;;18.40;11.06
64698;BME280;51124;53.394;-6.294;2023-03-04T01:12:04;102619.27;;;18.76;11.13
64698;BME280;51124;53.394;-6.294;2023-03-04T01:14:32;102627.29;;;18.64;11.33
64698;BME280;51124;53.394;-6.294;2023-03-04T01:17:00;102626.95;;;18.59;11.32
64698;BME280;51124;53.394;-6.294;2023-03-04T01:19:27;102629.71;;;18.44;11.24
64698;BME280;51124;53.394;-6.294;2023-03-04T01:21:55;102632.04;;;18.00;11.52
64698;BME280;51124;53.394;-6.294;2023-03-04T01:24:23;102630.07;;;18.55;11.25
64698;BME280;51124;53.394;-6.294;2023-03-04T01:26:51;102635.83;;;18.33;11.54
64698;BME280;51124;53.394;-6.294;2023-03-04T01:29:19;102630.26;;;19.05;11.28
64698;BME280;51124;53.394;-6.294;2023-03-04T01:31:47;102636.79;;;18.02;11.56
64698;BME280;51124;53.394;-6.294;2023-03-04T01:34:14;102638.68;;;18.69;11.56
64698;BME280;51124;53.394;-6.294;2023-03-04T01:36:42;102639.90;;;18.83;11.50
64698;BME280;51124;53.394;-6.294;2023-03-04T01:39:10;102641.05;;;18.32;11.65
64698;BME280;51124;53.394;-6.294;2023-03-04T01:41:38;102639.65;;;17.83;11.55
64698;BME280;51124;53.394;-6.294;2023-03-04T01:44:08;102634.68;;;18.81;11.44
64698;BME280;51124;53.394;-6.294;2023-03-04T01:46:36;102634.69;;;18.61;11.45
64698;BME280;51124;53.394;-6.294;2023-03-04T01:49:05;102632.97;;;18.00;11.67
64698;BME280;51124;53.394;-6.294;2023-03-04T01:51:33;102633.21;;;18.41;11.49
64698;BME280;51124;53.394;-6.294;2023-03-04T01:54:01;102631.52;;;16.55;11.59
64698;BME280;51124;53.394;-6.294;2023-03-04T01:56:34;102625.97;;;16.24;11.05
64698;BME280;51124;53.394;-6.294;2023-03-04T01:59:13;102624.58;;;15.99;10.61
64698;BME280;51124;53.394;-6.294;2023-03-04T02:01:30;102624.21;;;16.55;10.32
64698;BME280;51124;53.394;-6.294;2023-03-04T02:03:58;102620.09;;;16.37;10.19
64698;BME280;51124;53.394;-6.294;2023-03-04T02:06:25;102620.11;;;15.98;10.31
64698;BME280;51124;53.394;-6.294;2023-03-04T02:08:53;102614.68;;;15.94;9.94
64698;BME280;51124;53.394;-6.294;2023-03-04T02:11:20;102616.69;;;16.52;9.70
64698;BME280;51124;53.394;-6.294;2023-03-04T02:13:48;102614.87;;;15.94;9.62
64698;BME280;51124;53.394;-6.294;2023-03-04T02:16:15;102617.28;;;15.62;9.68
64698;BME280;51124;53.394;-6.294;2023-03-04T02:18:43;102613.93;;;15.85;9.56
64698;BME280;51124;53.394;-6.294;2023-03-04T02:21:14;102615.06;;;15.54;9.64
64698;BME280;51124;53.394;-6.294;2023-03-04T02:23:48;102612.22;;;16.81;9.37
64698;BME280;51124;53.394;-6.294;2023-03-04T02:26:19;102611.86;;;15.29;9.61
64698;BME280;51124;53.394;-6.294;2023-03-04T02:28:49;102607.60;;;15.98;9.36
64698;BME280;51124;53.394;-6.294;2023-03-04T02:31:24;102604.18;;;16.18;9.27
64698;BME280;51124;53.394;-6.294;2023-03-04T02:33:53;102604.46;;;15.44;9.37
64698;BME280;51124;53.394;-6.294;2023-03-04T02:36:21;102601.35;;;16.26;9.16
64698;BME280;51124;53.394;-6.294;2023-03-04T02:38:50;102597.27;;;16.48;9.03
64698;BME280;51124;53.394;-6.294;2023-03-04T02:41:21;102599.65;;;15.05;9.25
64698;BME280;51124;53.394;-6.294;2023-03-04T02:43:52;102600.66;;;16.76;9.14
64698;BME280;51124;53.394;-6.294;2023-03-04T02:46:20;102605.45;;;15.80;9.16
64698;BME280;51124;53.394;-6.294;2023-03-04T02:48:48;102604.58;;;15.60;9.25
64698;BME280;51124;53.394;-6.294;2023-03-04T02:51:15;102600.91;;;15.79;9.15
64698;BME280;51124;53.394;-6.294;2023-03-04T02:53:43;102599.20;;;15.76;9.10
64698;BME280;51124;53.394;-6.294;2023-03-04T02:56:10;102605.50;;;15.60;9.15
64698;BME280;51124;53.394;-6.294;2023-03-04T02:58:38;102605.53;;;15.08;9.19
64698;BME280;51124;53.394;-6.294;2023-03-04T03:01:05;102605.45;;;15.82;9.12
64698;BME280;51124;53.394;-6.294;2023-03-04T03:03:33;102600.71;;;15.89;8.98
64698;BME280;51124;53.394;-6.294;2023-03-04T03:06:00;102604.57;;;14.75;9.30
64698;BME280;51124;53.394;-6.294;2023-03-04T03:08:28;102603.57;;;15.64;9.19
64698;BME280;51124;53.394;-6.294;2023-03-04T03:10:55;102602.91;;;15.13;9.19
64698;BME280;51124;53.394;-6.294;2023-03-04T03:13:22;102601.51;;;15.41;9.25
64698;BME280;51124;53.394;-6.294;2023-03-04T03:15:50;102600.57;;;15.30;9.16
64698;BME280;51124;53.394;-6.294;2023-03-04T03:18:18;102598.10;;;15.70;9.04
64698;BME280;51124;53.394;-6.294;2023-03-04T03:20:45;102597.19;;;16.07;8.94
64698;BME280;51124;53.394;-6.294;2023-03-04T03:23:12;102600.69;;;15.02;9.15
64698;BME280;51124;53.394;-6.294;2023-03-04T03:25:40;102599.16;;;16.85;9.18
64698;BME280;51124;53.394;-6.294;2023-03-04T03:28:07;102594.48;;;15.23;9.22
64698;BME280;51124;53.394;-6.294;2023-03-04T03:30:35;102593.16;;;14.61;9.13
64698;BME280;51124;53.394;-6.294;2023-03-04T03:33:02;102594.51;;;16.45;9.18
64698;BME280;51124;53.394;-6.294;2023-03-04T03:35:30;102593.71;;;15.10;9.25
64698;BME280;51124;53.394;-6.294;2023-03-04T03:37:57;102591.76;;;16.51;9.25
64698;BME280;51124;53.394;-6.294;2023-03-04T03:40:24;102590.41;;;16.09;9.18
64698;BME280;51124;53.394;-6.294;2023-03-04T03:42:52;102588.94;;;15.31;9.16
64698;BME280;51124;53.394;-6.294;2023-03-04T03:45:19;102580.87;;;15.11;9.02
64698;BME280;51124;53.394;-6.294;2023-03-04T03:47:47;102582.34;;;15.42;9.16
64698;BME280;51124;53.394;-6.294;2023-03-04T03:50:14;102583.01;;;15.47;9.14
64698;BME280;51124;53.394;-6.294;2023-03-04T03:52:42;102578.43;;;16.22;9.00
64698;BME280;51124;53.394;-6.294;2023-03-04T03:55:11;102579.11;;;18.24;9.20
64698;BME280;51124;53.394;-6.294;2023-03-04T03:57:39;102583.19;;;18.34;9.65
64698;BME280;51124;53.394;-6.294;2023-03-04T04:00:10;102580.33;;;16.76;10.15
64698;BME280;51124;53.394;-6.294;2023-03-04T04:02:39;102579.94;;;16.06;9.97
64698;BME280;51124;53.394;-6.294;2023-03-04T04:05:08;102578.38;;;18.50;10.05
64698;BME280;51124;53.394;-6.294;2023-03-04T04:07:36;102582.91;;;18.22;10.59
64698;BME280;51124;53.394;-6.294;2023-03-04T04:10:04;102587.84;;;18.52;10.75
64698;BME280;51124;53.394;-6.294;2023-03-04T04:12:33;102588.51;;;17.15;10.93
64698;BME280;51124;53.394;-6.294;2023-03-04T04:15:01;102590.40;;;18.46;11.14
64698;BME280;51124;53.394;-6.294;2023-03-04T04:17:29;102588.72;;;18.47;11.18
64698;BME280;51124;53.394;-6.294;2023-03-04T04:19:56;102591.94;;;17.77;11.34
64698;BME280;51124;53.394;-6.294;2023-03-04T04:22:24;102593.22;;;18.65;11.17
64698;BME280;51124;53.394;-6.294;2023-03-04T04:24:52;102592.49;;;17.37;11.58
64698;BME280;51124;53.394;-6.294;2023-03-04T04:27:20;102591.72;;;17.99;11.48
64698;BME280;51124;53.394;-6.294;2023-03-04T04:29:47;102590.20;;;17.90;11.37
64698;BME280;51124;53.394;-6.294;2023-03-04T04:32:15;102586.96;;;18.08;11.43
64698;BME280;51124;53.394;-6.294;2023-03-04T04:34:43;102582.92;;;17.87;11.52
64698;BME280;51124;53.394;-6.294;2023-03-04T04:37:11;102585.62;;;17.52;11.70
64698;BME280;51124;53.394;-6.294;2023-03-04T04:39:39;102585.62;;;17.72;11.53
64698;BME280;51124;53.394;-6.294;2023-03-04T04:42:07;102588.82;;;17.50;11.62
64698;BME280;51124;53.394;-6.294;2023-03-04T04:44:36;102585.79;;;17.77;11.55
64698;BME280;51124;53.394;-6.294;2023-03-04T04:47:04;102582.63;;;18.36;11.56
64698;BME280;51124;53.394;-6.294;2023-03-04T04:49:32;102583.49;;;17.39;11.85
64698;BME280;51124;53.394;-6.294;2023-03-04T04:51:59;102584.09;;;18.03;11.49
64698;BME280;51124;53.394;-6.294;2023-03-04T04:54:27;102584.22;;;17.63;11.71
64698;BME280;51124;53.394;-6.294;2023-03-04T04:56:55;102589.49;;;16.66;11.35
64698;BME280;51124;53.394;-6.294;2023-03-04T04:59:23;102583.27;;;16.68;10.98
64698;BME280;51124;53.394;-6.294;2023-03-04T05:01:51;102585.85;;;15.65;10.79
64698;BME280;51124;53.394;-6.294;2023-03-04T05:04:18;102587.85;;;15.91;10.52
64698;BME280;51124;53.394;-6.294;2023-03-04T05:06:46;102588.67;;;15.82;10.36
64698;BME280;51124;53.394;-6.294;2023-03-04T05:09:13;102590.80;;;15.00;10.28
64698;BME280;51124;53.394;-6.294;2023-03-04T05:11:41;102592.10;;;14.64;10.28
64698;BME280;51124;53.394;-6.294;2023-03-04T05:14:09;102590.20;;;15.42;9.97
64698;BME280;51124;53.394;-6.294;2023-03-04T05:16:36;102592.78;;;15.25;9.80
64698;BME280;51124;53.394;-6.294;2023-03-04T05:19:03;102590.88;;;15.75;9.63
64698;BME280;51124;53.394;-6.294;2023-03-04T05:21:31;102594.75;;;15.34;9.82
64698;BME280;51124;53.394;-6.294;2023-03-04T05:23:58;102593.49;;;14.55;9.78
64698;BME280;51124;53.394;-6.294;2023-03-04T05:26:26;102595.13;;;16.03;9.43
64698;BME280;51124;53.394;-6.294;2023-03-04T05:28:53;102593.51;;;15.85;9.40
64698;BME280;51124;53.394;-6.294;2023-03-04T05:31:21;102592.95;;;15.73;9.34
64698;BME280;51124;53.394;-6.294;2023-03-04T05:33:48;102595.22;;;15.62;9.29
64698;BME280;51124;53.394;-6.294;2023-03-04T05:36:15;102596.13;;;15.36;9.20
64698;BME280;51124;53.394;-6.294;2023-03-04T05:38:43;102600.01;;;15.38;9.22
64698;BME280;51124;53.394;-6.294;2023-03-04T05:41:10;102601.05;;;15.35;9.38
64698;BME280;51124;53.394;-6.294;2023-03-04T05:43:38;102601.03;;;16.05;9.12
64698;BME280;51124;53.394;-6.294;2023-03-04T05:46:05;102604.67;;;14.39;9.35
64698;BME280;51124;53.394;-6.294;2023-03-04T05:48:33;102599.22;;;15.52;9.20
64698;BME280;51124;53.394;-6.294;2023-03-04T05:51:01;102599.39;;;15.47;9.02
64698;BME280;51124;53.394;-6.294;2023-03-04T05:53:29;102599.64;;;15.67;9.19
64698;BME280;51124;53.394;-6.294;2023-03-04T05:55:57;102601.56;;;15.93;9.11
64698;BME280;51124;53.394;-6.294;2023-03-04T05:58:25;102599.45;;;14.82;9.14
64698;BME280;51124;53.394;-6.294;2023-03-04T06:00:52;102601.65;;;16.21;8.99
64698;BME280;51124;53.394;-6.294;2023-03-04T06:03:21;102599.52;;;15.86;9.13
64698;BME280;51124;53.394;-6.294;2023-03-04T06:05:49;102600.01;;;15.11;9.10
64698;BME280;51124;53.394;-6.294;2023-03-04T06:08:16;102599.94;;;15.38;9.05
64698;BME280;51124;53.394;-6.294;2023-03-04T06:10:44;102603.44;;;15.69;9.07
64698;BME280;51124;53.394;-6.294;2023-03-04T06:13:11;102602.52;;;15.17;9.16
64698;BME280;51124;53.394;-6.294;2023-03-04T06:15:40;102603.51;;;15.93;9.01
64698;BME280;51124;53.394;-6.294;2023-03-04T06:18:07;102601.94;;;15.01;9.08
64698;BME280;51124;53.394;-6.294;2023-03-04T06:20:35;102605.62;;;15.21;9.09
64698;BME280;51124;53.394;-6.294;2023-03-04T06:23:02;102606.18;;;15.17;9.07
64698;BME280;51124;53.394;-6.294;2023-03-04T06:25:30;102604.02;;;15.33;8.97
64698;BME280;51124;53.394;-6.294;2023-03-04T06:27:57;102608.00;;;15.18;9.10
64698;BME280;51124;53.394;-6.294;2023-03-04T06:30:25;102611.35;;;15.05;9.27
64698;BME280;51124;53.394;-6.294;2023-03-04T06:32:52;102611.27;;;15.38;9.21
64698;BME280;51124;53.394;-6.294;2023-03-04T06:35:20;102610.81;;;15.66;9.07
64698;BME280;51124;53.394;-6.294;2023-03-04T06:37:48;102609.61;;;14.89;9.09
64698;BME280;51124;53.394;-6.294;2023-03-04T06:40:15;102608.97;;;16.04;9.15
64698;BME280;51124;53.394;-6.294;2023-03-04T06:42:43;102605.28;;;14.65;9.34
64698;BME280;51124;53.394;-6.294;2023-03-04T06:45:11;102605.03;;;15.23;9.27
64698;BME280;51124;53.394;-6.294;2023-03-04T06:47:38;102605.17;;;14.88;9.05
64698;BME280;51124;53.394;-6.294;2023-03-04T06:50:07;102607.80;;;15.03;9.09
64698;BME280;51124;53.394;-6.294;2023-03-04T06:52:34;102608.56;;;14.99;9.07
64698;BME280;51124;53.394;-6.294;2023-03-04T06:55:02;102609.66;;;14.87;9.04
64698;BME280;51124;53.394;-6.294;2023-03-04T06:57:30;102609.92;;;16.43;9.06
64698;BME280;51124;53.394;-6.294;2023-03-04T06:59:58;102610.18;;;17.88;9.51
64698;BME280;51124;53.394;-6.294;2023-03-04T07:02:26;102609.40;;;16.97;9.75
64698;BME280;51124;53.394;-6.294;2023-03-04T07:04:53;102605.83;;;16.73;9.68
64698;BME280;51124;53.394;-6.294;2023-03-04T07:07:21;102607.09;;;17.04;9.90
64698;BME280;51124;53.394;-6.294;2023-03-04T07:09:49;102608.81;;;18.60;10.29
64698;BME280;51124;53.394;-6.294;2023-03-04T07:12:16;102609.37;;;18.28;10.57
64698;BME280;51124;53.394;-6.294;2023-03-04T07:14:44;102610.11;;;17.44;10.98
64698;BME280;51124;53.394;-6.294;2023-03-04T07:17:12;102610.74;;;18.02;11.01
64698;BME280;51124;53.394;-6.294;2023-03-04T07:19:40;102609.01;;;17.89;11.13
64698;BME280;51124;53.394;-6.294;2023-03-04T07:22:08;102608.98;;;17.87;11.22
64698;BME280;51124;53.394;-6.294;2023-03-04T07:24:35;102610.50;;;17.67;11.18
64698;BME280;51124;53.394;-6.294;2023-03-04T07:27:03;102613.93;;;17.70;11.31
64698;BME280;51124;53.394;-6.294;2023-03-04T07:29:31;102613.52;;;17.88;11.18
64698;BME280;51124;53.394;-6.294;2023-03-04T07:31:59;102610.36;;;17.63;11.24
64698;BME280;51124;53.394;-6.294;2023-03-04T07:34:26;102613.65;;;17.35;11.35
64698;BME280;51124;53.394;-6.294;2023-03-04T07:36:54;102615.86;;;18.37;11.20
64698;BME280;51124;53.394;-6.294;2023-03-04T07:39:22;102616.56;;;17.84;11.37
64698;BME280;51124;53.394;-6.294;2023-03-04T07:41:50;102618.68;;;17.65;11.36
64698;BME280;51124;53.394;-6.294;2023-03-04T07:44:17;102622.42;;;17.16;11.52
64698;BME280;51124;53.394;-6.294;2023-03-04T07:46:45;102616.73;;;17.46;11.41
64698;BME280;51124;53.394;-6.294;2023-03-04T07:49:14;102621.70;;;17.05;11.53
64698;BME280;51124;53.394;-6.294;2023-03-04T07:51:42;102622.89;;;17.11;11.55
64698;BME280;51124;53.394;-6.294;2023-03-04T07:54:11;102618.76;;;17.84;11.31
64698;BME280;51124;53.394;-6.294;2023-03-04T07:56:39;102618.87;;;17.72;11.27
64698;BME280;51124;53.394;-6.294;2023-03-04T07:59:07;102624.07;;;17.10;11.31
64698;BME280;51124;53.394;-6.294;2023-03-04T08:01:37;102627.58;;;15.77;10.93
64698;BME280;51124;53.394;-6.294;2023-03-04T08:04:06;102626.58;;;15.69;10.57
64698;BME280;51124;53.394;-6.294;2023-03-04T08:06:34;102621.22;;;16.07;10.09
64698;BME280;51124;53.394;-6.294;2023-03-04T08:09:04;102626.04;;;15.86;10.22
64698;BME280;51124;53.394;-6.294;2023-03-04T08:11:32;102628.31;;;16.40;9.90
64698;BME280;51124;53.394;-6.294;2023-03-04T08:14:00;102630.10;;;15.54;9.75
64698;BME280;51124;53.394;-6.294;2023-03-04T08:16:28;102631.32;;;15.28;9.67
64698;BME280;51124;53.394;-6.294;2023-03-04T08:18:57;102635.16;;;15.43;9.64
64698;BME280;51124;53.394;-6.294;2023-03-04T08:21:26;102635.74;;;14.86;9.69
64698;BME280;51124;53.394;-6.294;2023-03-04T08:23:55;102637.06;;;16.32;9.42
64698;BME280;51124;53.394;-6.294;2023-03-04T08:26:26;102643.51;;;15.93;9.60
64698;BME280;51124;53.394;-6.294;2023-03-04T08:28:54;102641.84;;;15.27;9.51
64698;BME280;51124;53.394;-6.294;2023-03-04T08:31:23;102640.32;;;15.18;9.35
64698;BME280;51124;53.394;-6.294;2023-03-04T08:33:50;102640.28;;;16.60;9.26
64698;BME280;51124;53.394;-6.294;2023-03-04T08:36:18;102638.50;;;16.86;9.35
64698;BME280;51124;53.394;-6.294;2023-03-04T08:38:45;102639.85;;;16.30;9.40
64698;BME280;51124;53.394;-6.294;2023-03-04T08:41:13;102636.84;;;15.40;9.31
64698;BME280;51124;53.394;-6.294;2023-03-04T08:43:41;102630.56;;;15.78;9.25
64698;BME280;51124;53.394;-6.294;2023-03-04T08:46:08;102634.21;;;16.11;9.28
64698;BME280;51124;53.394;-6.294;2023-03-04T08:48:37;102632.13;;;14.86;9.23
64698;BME280;51124;53.394;-6.294;2023-03-04T08:51:09;102629.38;;;15.51;9.31
64698;BME280;51124;53.394;-6.294;2023-03-04T08:53:38;102632.13;;;16.58;8.97
64698;BME280;51124;53.394;-6.294;2023-03-04T08:56:06;102633.68;;;16.09;9.01
64698;BME280;51124;53.394;-6.294;2023-03-04T08:58:33;102631.61;;;15.11;9.17
64698;BME280;51124;53.394;-6.294;2023-03-04T09:01:02;102633.84;;;16.83;8.80
64698;BME280;51124;53.394;-6.294;2023-03-04T09:03:30;102629.92;;;16.55;8.91
64698;BME280;51124;53.394;-6.294;2023-03-04T09:06:00;102634.00;;;16.12;9.02
64698;BME280;51124;53.394;-6.294;2023-03-04T09:08:27;102629.43;;;15.36;8.96
64698;BME280;51124;53.394;-6.294;2023-03-04T09:10:55;102627.40;;;15.53;8.94
64698;BME280;51124;53.394;-6.294;2023-03-04T09:13:23;102624.10;;;16.15;8.98
64698;BME280;51124;53.394;-6.294;2023-03-04T09:15:52;102629.38;;;15.30;9.01
64698;BME280;51124;53.394;-6.294;2023-03-04T09:18:21;102627.31;;;16.33;8.94
64698;BME280;51124;53.394;-6.294;2023-03-04T09:20:49;102624.63;;;14.26;9.14
64698;BME280;51124;53.394;-6.294;2023-03-04T09:23:17;102623.94;;;16.52;8.86
64698;BME280;51124;53.394;-6.294;2023-03-04T09:25:45;102624.69;;;15.61;9.04
64698;BME280;51124;53.394;-6.294;2023-03-04T09:28:14;102630.57;;;15.81;8.95
64698;BME280;51124;53.394;-6.294;2023-03-04T09:30:42;102627.33;;;16.91;8.87
64698;BME280;51124;53.394;-6.294;2023-03-04T09:33:10;102626.52;;;15.46;9.16
64698;BME280;51124;53.394;-6.294;2023-03-04T09:35:37;102629.22;;;15.71;8.96
64698;BME280;51124;53.394;-6.294;2023-03-04T09:38:05;102630.07;;;15.99;9.13
64698;BME280;51124;53.394;-6.294;2023-03-04T09:40:36;102630.37;;;15.10;9.04
64698;BME280;51124;53.394;-6.294;2023-03-04T09:43:10;102634.92;;;17.21;8.91
64698;BME280;51124;53.394;-6.294;2023-03-04T09:45:41;102634.28;;;16.49;8.96
64698;BME280;51124;53.394;-6.294;2023-03-04T09:48:12;102636.59;;;15.64;8.98
64698;BME280;51124;53.394;-6.294;2023-03-04T09:50:51;102635.95;;;15.71;8.99
64698;BME280;51124;53.394;-6.294;2023-03-04T09:53:20;102638.59;;;15.87;8.88
64698;BME280;51124;53.394;-6.294;2023-03-04T09:55:41;102638.40;;;16.05;8.98
64698;BME280;51124;53.394;-6.294;2023-03-04T09:58:20;102640.54;;;15.54;8.90
64698;BME280;51124;53.394;-6.294;2023-03-04T10:00:45;102639.01;;;18.29;9.26
64698;BME280;51124;53.394;-6.294;2023-03-04T10:03:17;102642.21;;;18.67;9.58
64698;BME280;51124;53.394;-6.294;2023-03-04T10:05:52;102642.11;;;18.34;9.87
64698;BME280;51124;53.394;-6.294;2023-03-04T10:08:26;102647.62;;;16.01;10.00
64698;BME280;51124;53.394;-6.294;2023-03-04T10:10:38;102643.54;;;16.38;9.77
64698;BME280;51124;53.394;-6.294;2023-03-04T10:13:13;102640.82;;;18.81;10.19
64698;BME280;51124;53.394;-6.294;2023-03-04T10:15:36;102641.91;;;17.93;10.67
64698;BME280;51124;53.394;-6.294;2023-03-04T10:18:10;102639.62;;;18.85;10.64
64698;BME280;51124;53.394;-6.294;2023-03-04T10:20:37;102636.67;;;18.08;10.90
64698;BME280;51124;53.394;-6.294;2023-03-04T10:23:07;102636.45;;;17.56;11.13
64698;BME280;51124;53.394;-6.294;2023-03-04T10:25:27;102634.10;;;18.66;11.03
64698;BME280;51124;53.394;-6.294;2023-03-04T10:27:57;102628.73;;;17.45;11.66
64698;BME280;51124;53.394;-6.294;2023-03-04T10:30:36;102628.40;;;17.71;11.31
64698;BME280;51124;53.394;-6.294;2023-03-04T10:32:56;102628.69;;;17.93;11.25
64698;BME280;51124;53.394;-6.294;2023-03-04T10:35:30;102627.34;;;18.55;11.17
64698;BME280;51124;53.394;-6.294;2023-03-04T10:37:51;102625.55;;;18.39;11.37
64698;BME280;51124;53.394;-6.294;2023-03-04T10:40:20;102623.12;;;17.88;11.44
64698;BME280;51124;53.394;-6.294;2023-03-04T10:42:50;102621.36;;;18.34;11.33
64698;BME280;51124;53.394;-6.294;2023-03-04T10:45:23;102617.04;;;18.48;11.27
64698;BME280;51124;53.394;-6.294;2023-03-04T10:47:54;102616.12;;;18.03;11.48
64698;BME280;51124;53.394;-6.294;2023-03-04T10:50:24;102612.18;;;17.65;11.38
64698;BME280;51124;53.394;-6.294;2023-03-04T10:52:53;102614.80;;;17.71;11.52
64698;BME280;51124;53.394;-6.294;2023-03-04T10:55:23;102607.79;;;17.88;11.37
64698;BME280;51124;53.394;-6.294;2023-03-04T10:57:55;102610.08;;;17.36;11.51
64698;BME280;51124;53.394;-6.294;2023-03-04T11:00:31;102610.51;;;17.96;11.48
64698;BME280;51124;53.394;-6.294;2023-03-04T11:03:27;102604.42;;;15.67;11.23
64698;BME280;51124;53.394;-6.294;2023-03-04T11:05:25;102604.05;;;16.07;10.90
64698;BME280;51124;53.394;-6.294;2023-03-04T11:08:00;102600.41;;;15.70;10.36
64698;BME280;51124;53.394;-6.294;2023-03-04T11:10:30;102597.14;;;16.50;10.20
64698;BME280;51124;53.394;-6.294;2023-03-04T11:13:07;102599.55;;;15.10;10.15
64698;BME280;51124;53.394;-6.294;2023-03-04T11:15:30;102598.27;;;15.14;10.18
64698;BME280;51124;53.394;-6.294;2023-03-04T11:18:02;102597.58;;;15.73;9.71
64698;BME280;51124;53.394;-6.294;2023-03-04T11:20:33;102598.45;;;15.79;9.65
64698;BME280;51124;53.394;-6.294;2023-03-04T11:23:05;102594.25;;;15.55;9.57
64698;BME280;51124;53.394;-6.294;2023-03-04T11:25:39;102592.76;;;15.36;9.55
64698;BME280;51124;53.394;-6.294;2023-03-04T11:28:12;102591.57;;;16.14;9.46
64698;BME280;51124;53.394;-6.294;2023-03-04T11:30:44;102590.19;;;15.86;9.26
64698;BME280;51124;53.394;-6.294;2023-03-04T11:33:20;102588.36;;;15.89;9.36
64698;BME280;51124;53.394;-6.294;2023-03-04T11:35:46;102591.29;;;15.63;9.40
64698;BME280;51124;53.394;-6.294;2023-03-04T11:38:07;102590.58;;;15.00;9.41
64698;BME280;51124;53.394;-6.294;2023-03-04T11:40:42;102587.52;;;15.60;9.28
64698;BME280;51124;53.394;-6.294;2023-03-04T11:43:15;102587.53;;;14.85;9.43
64698;BME280;51124;53.394;-6.294;2023-03-04T11:46:00;102585.98;;;15.02;9.39
64698;BME280;51124;53.394;-6.294;2023-03-04T11:48:15;102587.47;;;15.38;9.28
64698;BME280;51124;53.394;-6.294;2023-03-04T11:50:40;102585.10;;;14.87;9.23
64698;BME280;51124;53.394;-6.294;2023-03-04T11:53:28;102583.52;;;15.39;9.05
64698;BME280;51124;53.394;-6.294;2023-03-04T11:55:43;102581.74;;;15.22;9.06
64698;BME280;51124;53.394;-6.294;2023-03-04T11:58:28;102577.00;;;14.38;9.18
64698;BME280;51124;53.394;-6.294;2023-03-04T12:00:49;102570.49;;;15.79;9.05
64698;BME280;51124;53.394;-6.294;2023-03-04T12:03:52;102570.77;;;15.53;9.02
64698;BME280;51124;53.394;-6.294;2023-03-04T12:05:49;102572.02;;;15.42;9.12
64698;BME280;51124;53.394;-6.294;2023-03-04T12:08:25;102569.51;;;14.65;9.11
64698;BME280;51124;53.394;-6.294;2023-03-04T12:10:41;102570.05;;;15.43;9.08
64698;BME280;51124;53.394;-6.294;2023-03-04T12:13:29;102568.73;;;14.64;9.11
64698;BME280;51124;53.394;-6.294;2023-03-04T12:15:46;102567.69;;;14.74;9.23
64698;BME280;51124;53.394;-6.294;2023-03-04T12:18:27;102567.15;;;15.82;9.80
64698;BME280;51124;53.394;-6.294;2023-03-04T12:20:57;102566.91;;;15.67;9.53
64698;BME280;51124;53.394;-6.294;2023-03-04T12:23:29;102563.53;;;16.18;9.52
64698;BME280;51124;53.394;-6.294;2023-03-04T12:25:43;102565.20;;;16.34;8.97
64698;BME280;51124;53.394;-6.294;2023-03-04T12:28:36;102564.97;;;16.12;9.05
64698;BME280;51124;53.394;-6.294;2023-03-04T12:31:03;102565.81;;;16.71;9.31
64698;BME280;51124;53.394;-6.294;2023-03-04T12:33:20;102559.86;;;15.99;9.39
64698;BME280;51124;53.394;-6.294;2023-03-04T12:35:44;102561.19;;;14.94;9.60
64698;BME280;51124;53.394;-6.294;2023-03-04T12:38:22;102557.41;;;15.72;9.52
64698;BME280;51124;53.394;-6.294;2023-03-04T12:40:48;102557.57;;;15.51;9.48
64698;BME280;51124;53.394;-6.294;2023-03-04T12:43:23;102555.95;;;16.44;9.54
64698;BME280;51124;53.394;-6.294;2023-03-04T12:45:50;102551.55;;;15.49;9.55
64698;BME280;51124;53.394;-6.294;2023-03-04T12:48:18;102546.32;;;15.02;9.56
64698;BME280;51124;53.394;-6.294;2023-03-04T12:50:46;102546.42;;;15.79;9.05